Latest Weather Observations for Tasman Island

IDT60901

Issued at 8:11 pm EDT Friday 23 October 2020 (issued every 10 minutes, with the page automatically refreshed every 10 minutes)

About weather observations | Map of Hobart area stations | Latest observations for Hobart area | Other Formats
Station Details ID: 094155 Name: TASMAN ISLAND Lat: -43.24 Lon: 148.00 Height: 240.0 m
Data from the previous 72 hours. | See also: Recent months at Tasman Island
Date/Time
EDT
Temp
°C
App
Temp
°C
Dew
Point
°C
Rel
Hum
%
Delta-T
°C
Wind Press
QNH
hPa
Press
MSL
hPa
Rain since
9am
mm
Dir  Spd
km/h
Gust
km/h
Spd
kts
Gust
kts
23/08:00pm 10.4 8.5 9.2 92 0.6 ENE 9 17 5 9 1005.8 1005.9 0.2
23/07:30pm 10.4 9.0 9.0 91 0.7 E 6 13 3 7 1005.9 1006.0 0.2
23/07:00pm 10.5 8.6 8.9 90 0.8 ESE 9 13 5 7 1005.8 1005.9 0.2
23/06:30pm 10.7 9.1 8.6 87 1.0 ESE 7 11 4 6 1006.0 1006.1 0.2
23/06:00pm 10.9 8.7 7.8 81 1.5 ESE 9 15 5 8 1006.3 1006.4 0.2
23/05:30pm 11.5 9.7 7.2 75 2.1 ESE 6 9 3 5 1006.2 1006.3 0.2
23/05:00pm 11.5 9.6 6.6 72 2.4 SE 6 9 3 5 1006.3 1006.4 0.2
23/04:30pm 11.6 9.8 7.9 78 1.8 SE 7 11 4 6 1006.3 1006.4 0.2
23/04:00pm 12.3 10.2 8.2 76 2.1 SE 9 13 5 7 1006.2 1006.3 0.2
23/03:30pm 11.8 9.0 8.5 80 1.7 SSE 13 17 7 9 1006.6 1006.7 0.2
23/03:00pm 12.5 9.8 9.0 79 1.8 SSE 13 19 7 10 1007.0 1007.1 0.0
23/02:30pm 12.9 10.7 9.4 79 1.8 SSE 11 19 6 10 1007.4 1007.5 0.0
23/02:00pm 13.5 11.6 10.5 82 1.6 S 11 19 6 10 1007.7 1007.8 0.0
23/01:30pm 11.7 9.2 9.8 88 1.0 S 13 17 7 9 1008.0 1008.1 0.0
23/01:00pm 11.4 8.9 9.7 89 0.9 S 13 19 7 10 1008.1 1008.2 0.0
23/12:30pm 10.9 8.4 9.7 92 0.6 SSW 13 20 7 11 1008.3 1008.4 0.0
23/12:00pm 10.6 7.6 9.4 92 0.6 SSW 15 22 8 12 1008.6 1008.7 0.0
23/11:30am 11.8 10.0 9.4 85 1.2 NNW 9 15 5 8 1008.8 1008.9 0.0
23/11:00am 12.7 9.1 9.7 82 1.6 N 19 26 10 14 1009.1 1009.2 0.0
23/10:30am 12.8 8.9 8.7 76 2.1 N 19 24 10 13 1009.3 1009.5 0.0
23/10:00am 12.8 9.0 9.8 82 1.6 N 20 26 11 14 1009.4 1009.6 0.0
23/09:30am 12.1 8.3 9.8 86 1.2 NNE 20 30 11 16 1009.7 1009.9 0.0
23/09:00am 12.0 8.0 10.4 90 0.8 N 22 32 12 17 1010.3 1010.4 0.8
23/08:30am 12.2 9.8 10.1 87 1.1 NNE 13 17 7 9 1010.5 1010.6 0.8
23/08:00am 12.4 10.7 10.0 85 1.2 NNE 9 13 5 7 1010.6 1010.7 0.8
23/07:30am 11.3 9.8 10.5 95 0.4 NNE 9 13 5 7 1010.6 1010.7 0.8
23/07:00am 10.9 8.5 10.1 95 0.4 N 13 19 7 10 1010.7 1010.8 0.8
23/06:30am 10.4 6.6 9.8 96 0.3 N 20 24 11 13 1010.7 1010.8 0.8
23/06:00am 10.5 6.9 9.7 95 0.4 N 19 24 10 13 1010.4 1010.5 0.8
23/05:30am 10.6 6.2 10.4 99 0.1 N 24 32 13 17 1010.5 1010.6 0.8
23/05:00am 10.5 5.4 10.5 100 0.0 N 28 37 15 20 1010.6 1010.7 0.8
23/04:30am 10.7 6.0 10.7 100 0.0 NNE 26 33 14 18 1010.8 1010.9 0.8
23/04:00am 10.6 5.5 10.6 100 0.0 N 28 35 15 19 1011.1 1011.2 0.8
23/03:30am 10.7 4.9 10.7 100 0.0 N 32 39 17 21 1011.6 1011.7 0.8
23/03:00am 10.4 4.3 10.4 100 0.0 N 33 43 18 23 1011.9 1012.0 0.8
23/02:30am 10.5 4.0 10.5 100 0.0 N 35 43 19 23 1012.2 1012.3 0.8
23/02:00am 10.6 4.5 10.6 100 0.0 NNE 33 43 18 23 1012.8 1013.0 0.8
23/01:30am 10.6 3.8 10.6 100 0.0 NNE 37 50 20 27 1013.3 1013.5 0.8
23/01:00am 10.4 4.4 10.1 98 0.2 NNE 32 44 17 24 1013.6 1013.8 0.8
23/12:30am 10.1 4.9 8.9 92 0.6 NNE 26 39 14 21 1014.0 1014.2 0.0
23/12:00am 10.2 4.0 7.8 85 1.2 NNE 30 46 16 25 1014.6 1014.7 0.0
 
Date/Time
EDT
Temp
°C
App
Temp
°C
Dew
Point
°C
Rel
Hum
%
Delta-T
°C
Wind Press
QNH
hPa
Press
MSL
hPa
Rain since
9am
mm
Dir  Spd
km/h
Gust
km/h
Spd
kts
Gust
kts
22/11:30pm 10.2 3.4 7.1 81 1.5 NNE 32 43 17 23 1014.9 1015.0 0.0
22/11:00pm 10.2 2.7 6.4 77 1.8 NNE 35 44 19 24 1014.7 1014.8 0.0
22/10:30pm 10.1 4.6 5.7 74 2.0 NNE 24 43 13 23 1015.3 1015.4 0.0
22/10:00pm 10.2 4.3 6.0 75 2.0 NNE 26 37 14 20 1015.7 1015.8 0.0
22/09:30pm 10.0 5.8 5.8 75 2.0 NE 17 28 9 15 1015.8 1015.9 0.0
22/09:00pm 9.9 5.6 5.3 73 2.1 NE 17 28 9 15 1015.9 1016.0 0.0
22/08:30pm 9.8 5.9 5.2 73 2.1 NE 15 24 8 13 1015.9 1016.0 0.0
22/08:00pm 9.6 6.4 5.0 73 2.1 ENE 11 22 6 12 1015.9 1016.0 0.0
22/07:30pm 9.5 6.2 4.7 72 2.2 E 11 19 6 10 1015.8 1015.9 0.0
22/07:00pm 9.6 7.3 4.8 72 2.2 E 6 15 3 8 1015.8 1015.9 0.0
22/06:30pm 9.8 7.6 5.2 73 2.1 ENE 6 15 3 8 1015.7 1015.8 0.0
22/06:00pm 10.7 8.9 5.5 70 2.4 E 4 9 2 5 1015.7 1015.8 0.0
22/05:30pm 10.5 8.1 5.1 69 2.5 E 7 13 4 7 1015.7 1015.8 0.0
22/05:00pm 11.0 8.3 5.5 69 2.6 ESE 9 13 5 7 1015.8 1015.9 0.0
22/04:30pm 10.6 7.5 5.4 70 2.4 ESE 11 15 6 8 1016.0 1016.1 0.0
22/04:00pm 10.9 8.3 6.1 72 2.3 ESE 9 13 5 7 1016.1 1016.2 0.0
22/03:30pm 11.4 9.1 5.5 67 2.8 ESE 7 13 4 7 1016.1 1016.2 0.0
22/03:00pm 11.5 8.8 5.4 66 2.8 SE 9 17 5 9 1016.2 1016.4 0.0
22/02:30pm 11.1 8.0 5.4 68 2.7 SE 11 17 6 9 1016.4 1016.6 0.0
22/02:00pm 10.8 7.8 6.0 72 2.3 SSE 11 17 6 9 1016.6 1016.8 0.0
22/01:30pm 12.2 9.0 6.9 70 2.6 SSE 13 19 7 10 1016.5 1016.7 0.0
22/01:00pm 12.3 9.0 6.6 68 2.7 SSE 13 17 7 9 1016.4 1016.6 0.0
22/12:30pm 12.4 9.5 6.7 68 2.8 S 11 17 6 9 1016.6 1016.8 0.0
22/12:00pm 12.1 8.9 6.8 70 2.6 S 13 19 7 10 1016.9 1017.1 0.0
22/11:30am 12.2 9.8 6.9 70 2.6 SSW 9 15 5 8 1017.1 1017.3 0.0
22/11:00am 11.5 8.3 6.8 73 2.3 SW 13 20 7 11 1017.2 1017.4 0.0
22/10:30am 11.1 8.6 6.6 74 2.2 SW 9 19 5 10 1017.2 1017.4 0.0
22/10:00am 10.9 8.2 7.4 79 1.7 SW 11 22 6 12 1017.3 1017.5 0.0
22/09:30am 9.9 6.4 7.0 82 1.4 SW 15 28 8 15 1017.2 1017.4 0.0
22/09:00am 9.7 5.8 7.0 83 1.3 SW 17 30 9 16 1017.1 1017.3 3.4
22/08:30am 9.4 6.1 6.5 82 1.4 SW 13 28 7 15 1017.0 1017.2 3.4
22/08:00am 9.3 5.1 7.4 88 0.9 SW 19 32 10 17 1016.8 1017.0 3.4
22/07:30am 9.0 4.6 7.3 89 0.8 SW 20 32 11 17 1016.6 1016.8 3.4
22/07:00am 8.5 4.6 7.3 92 0.6 SSW 17 28 9 15 1016.5 1016.7 3.4
22/06:30am 8.5 4.8 8.1 97 0.2 SSW 17 28 9 15 1016.3 1016.5 3.4
22/06:00am 8.6 4.7 8.5 99 0.0 SW 19 32 10 17 1016.1 1016.2 3.4
22/05:30am 8.5 5.7 8.5 100 0.0 SSW 13 30 7 16 1015.9 1016.0 3.4
22/05:00am 8.8 6.8 8.8 100 0.0 W 9 17 5 9 1015.9 1016.0 3.4
22/04:30am 8.4 6.3 8.4 100 0.0 WSW 9 15 5 8 1015.8 1015.9 3.4
22/04:00am 8.5 6.5 8.5 100 0.0 WSW 9 17 5 9 1015.7 1015.8 3.2
22/03:30am 8.2 5.7 8.1 99 0.0 WSW 11 19 6 10 1015.7 1015.8 3.2
22/03:00am 8.7 6.3 8.7 100 0.0 WSW 11 20 6 11 1015.8 1015.9 2.8
22/02:30am 9.1 7.6 9.1 100 0.0 W 7 15 4 8 1015.9 1016.0 2.0
22/02:00am 9.1 7.6 9.0 99 0.0 W 7 17 4 9 1016.0 1016.1 1.0
22/01:30am 9.1 7.6 9.0 99 0.0 W 7 15 4 8 1016.1 1016.2 0.6
22/01:00am 9.1 7.7 9.0 99 0.0 WSW 6 13 3 7 1016.2 1016.4 0.2
22/12:30am 9.2 7.3 9.1 99 0.0 WSW 9 15 5 8 1016.2 1016.4 0.2
22/12:00am 9.3 7.4 9.2 99 0.0 WSW 9 15 5 8 1016.3 1016.5 0.0
 
Date/Time
EDT
Temp
°C
App
Temp
°C
Dew
Point
°C
Rel
Hum
%
Delta-T
°C
Wind Press
QNH
hPa
Press
MSL
hPa
Rain since
9am
mm
Dir  Spd
km/h
Gust
km/h
Spd
kts
Gust
kts
21/11:30pm 9.1 7.5 8.8 98 0.1 WSW 7 11 4 6 1016.2 1016.4 0.0
21/11:00pm 9.2 6.8 8.6 96 0.3 SSW 11 19 6 10 1016.2 1016.4 0.0
21/10:30pm 9.7 6.6 8.8 94 0.4 SSW 15 20 8 11 1016.2 1016.4 0.0
21/10:00pm 9.8 7.1 8.9 94 0.4 SSW 13 20 7 11 1016.2 1016.4 0.0
21/09:30pm 10.1 7.4 9.0 93 0.6 SW 13 20 7 11 1016.1 1016.2 0.0
21/09:00pm 10.1 8.2 9.2 94 0.5 SW 9 20 5 11 1015.9 1016.0 0.0
21/08:30pm 10.1 7.9 9.2 94 0.5 SW 11 17 6 9 1015.7 1015.8 0.0
21/08:00pm 10.2 7.5 9.1 93 0.6 SW 13 20 7 11 1015.3 1015.4 0.0
21/07:30pm 10.3 7.6 9.1 92 0.6 SW 13 20 7 11 1015.1 1015.2 0.0
21/07:00pm 10.5 8.1 8.8 89 0.8 SSW 11 19 6 10 1014.8 1014.9 0.0
21/06:30pm 11.2 8.7 8.2 82 1.5 S 11 17 6 9 1014.6 1014.7 0.0
21/06:00pm 11.4 9.5 7.5 77 1.9 SSE 7 11 4 6 1014.5 1014.6 0.0
21/05:30pm 11.8 9.2 7.7 76 2.0 SE 11 17 6 9 1014.3 1014.5 0.0
21/05:00pm 12.7 10.3 4.2 56 3.9 SE 6 11 3 6 1014.2 1014.4 0.0
21/04:30pm 12.4 9.8 4.4 58 3.7 E 7 11 4 6 1014.0 1014.2 0.0
21/04:00pm 12.6 10.4 5.5 62 3.4 ESE 6 9 3 5 1014.0 1014.2 0.0
21/03:30pm 12.4 10.1 5.8 64 3.1 ESE 7 9 4 5 1014.2 1014.4 0.0
21/03:00pm 12.5 9.7 6.8 68 2.8 SSE 11 15 6 8 1014.7 1014.8 0.0
21/02:30pm 13.6 11.1 5.0 56 4.1 SSE 7 11 4 6 1014.6 1014.7 0.0
21/02:00pm 13.7 11.3 5.3 57 4.0 S 7 13 4 7 1014.7 1014.8 0.0
21/01:30pm 14.1 11.8 7.4 64 3.3 SSW 9 13 5 7 1014.5 1014.6 0.0
21/01:00pm 13.7 11.1 6.3 61 3.6 SW 9 15 5 8 1014.8 1014.9 0.0
21/12:30pm 13.6 11.9 5.7 59 3.8 E 4 17 2 9 1014.9 1015.0 0.0
21/12:00pm 14.1 12.4 5.7 57 4.0 WSW 4 9 2 5 1015.0 1015.1 0.0
21/11:30am 13.4 11.0 5.3 58 3.8 W 7 11 4 6 1015.0 1015.1 0.0
21/11:00am 12.2 10.0 5.1 62 3.3 W 6 9 3 5 1015.2 1015.3 0.0
21/10:30am 12.6 10.3 5.5 62 3.4 WNW 7 11 4 6 1015.1 1015.2 0.0
21/10:00am 12.0 9.4 6.3 68 2.7 NW 9 15 5 8 1015.1 1015.2 0.0
21/09:30am 12.2 10.8 7.3 72 2.4 WNW 4 15 2 8 1015.4 1015.5 0.0
21/09:00am 10.6 8.7 6.7 77 1.9 NE 6 13 3 7 1015.5 1015.6 0.0
21/08:30am 10.2 7.7 6.5 78 1.8 NW 9 20 5 11 1015.4 1015.5 0.0
21/08:00am 10.3 8.6 7.4 82 1.4 WNW 6 15 3 8 1015.3 1015.4 0.0
21/07:30am 10.2 8.5 7.6 84 1.3 WNW 6 11 3 6 1015.2 1015.3 0.0
21/07:00am 9.8 8.4 8.7 93 0.5 NW 6 11 3 6 1015.0 1015.1 0.0
21/06:30am 9.6 8.0 8.8 95 0.4 WNW 7 9 4 5 1015.0 1015.1 0.0
21/06:00am 9.4 8.0 8.8 96 0.3 NW 6 9 3 5 1014.7 1014.8 0.0
21/05:30am 9.4 8.0 8.8 96 0.3 NW 6 6 3 3 1014.5 1014.6 0.0
21/05:00am 9.3 7.8 8.5 95 0.4 NNE 6 7 3 4 1014.2 1014.4 0.0
21/04:30am 9.5 8.1 8.9 96 0.3 ENE 6 7 3 4 1014.2 1014.4 0.0
21/04:00am 9.4 8.0 8.8 96 0.3 ESE 6 7 3 4 1014.3 1014.5 0.0
21/03:30am 9.6 8.2 8.7 94 0.4 SE 6 7 3 4 1014.6 1014.7 0.0
21/03:00am 9.5 8.0 8.3 92 0.6 SE 6 9 3 5 1014.8 1014.9 0.0
21/02:30am 9.6 7.9 8.4 92 0.6 SSE 7 11 4 6 1014.9 1015.0 0.0
21/02:00am 9.7 8.0 8.5 92 0.6 SSE 7 11 4 6 1014.9 1015.0 0.0
21/01:30am 9.7 8.0 8.5 92 0.6 SSE 7 13 4 7 1015.3 1015.4 0.0
21/01:00am 9.7 8.2 8.6 93 0.5 SSE 6 9 3 5 1015.5 1015.6 0.0
21/12:30am 9.8 8.2 8.7 93 0.5 SSE 7 11 4 6 1015.5 1015.6 0.0
21/12:00am 9.8 8.4 8.7 93 0.5 SSE 6 11 3 6 1015.7 1015.8 0.0
 
Date/Time
EDT
Temp
°C
App
Temp
°C
Dew
Point
°C
Rel
Hum
%
Delta-T
°C
Wind Press
QNH
hPa
Press
MSL
hPa
Rain since
9am
mm
Dir  Spd
km/h
Gust
km/h
Spd
kts
Gust
kts
20/11:30pm 9.8 7.4 8.6 92 0.6 SE 11 19 6 10 1015.6 1015.7 0.0
20/11:00pm 9.8 6.2 8.4 91 0.7 SE 17 22 9 12 1015.8 1015.9 0.0
20/10:30pm 9.8 7.0 8.6 92 0.6 SSE 13 22 7 12 1016.0 1016.1 0.0
20/10:00pm 9.9 6.4 8.8 93 0.5 SSE 17 26 9 14 1015.9 1016.0 0.0
20/09:30pm 10.2 8.0 9.3 94 0.5 SSE 11 22 6 12 1016.1 1016.2 0.0
20/09:00pm 10.4 9.0 9.5 94 0.5 SE 7 17 4 9 1016.0 1016.1 0.0
20/08:30pm 10.5 9.3 9.6 94 0.5 SW 6 11 3 6 1015.8 1015.9 0.0

Latest Capital City Observations: Canberra | Sydney | Melbourne | Brisbane | Adelaide | Perth | Hobart | Darwin

Other formats

Comma delimited format used in spreadsheet applications
http://www.bom.gov.au/fwo/IDT60901/IDT60901.95986.axf

JavaScript Object Notation format (JSON) in row-major order
http://www.bom.gov.au/fwo/IDT60901/IDT60901.95986.json

Data quality

Most of these data are generated automatically and are frequently updated. Quality checks on data are not normally performed. It is possible for incorrect values to appear. Refer to information at About Latest Weather Observations and please check the disclaimer before using these data.